sensor_id;sensor_type;location;lat;lon;timestamp;pressure;altitude;pressure_sealevel;temperature;humidity
61506;BME280;47366;51.916;4.574;2023-04-05T00:02:25;102624.94;;;5.51;62.28
61506;BME280;47366;51.916;4.574;2023-04-05T00:04:54;102615.13;;;5.45;62.82
61506;BME280;47366;51.916;4.574;2023-04-05T00:07:21;102618.75;;;5.44;62.70
61506;BME280;47366;51.916;4.574;2023-04-05T00:09:47;102614.31;;;5.40;63.42
61506;BME280;47366;51.916;4.574;2023-04-05T00:12:12;102623.25;;;5.42;63.08
61506;BME280;47366;51.916;4.574;2023-04-05T00:14:38;102619.72;;;5.39;62.90
61506;BME280;47366;51.916;4.574;2023-04-05T00:17:03;102610.78;;;5.33;63.81
61506;BME280;47366;51.916;4.574;2023-04-05T00:19:28;102606.38;;;5.28;64.06
61506;BME280;47366;51.916;4.574;2023-04-05T00:21:58;102609.06;;;5.29;63.82
61506;BME280;47366;51.916;4.574;2023-04-05T00:24:23;102619.81;;;5.26;64.21
61506;BME280;47366;51.916;4.574;2023-04-05T00:26:49;102615.38;;;5.25;63.64
61506;BME280;47366;51.916;4.574;2023-04-05T00:29:15;102612.69;;;5.25;64.14
61506;BME280;47366;51.916;4.574;2023-04-05T00:31:40;102606.44;;;5.22;63.88
61506;BME280;47366;51.916;4.574;2023-04-05T00:34:05;102607.38;;;5.19;64.36
61506;BME280;47366;51.916;4.574;2023-04-05T00:36:33;102605.66;;;5.12;65.01
61506;BME280;47366;51.916;4.574;2023-04-05T00:38:59;102609.25;;;5.13;65.05
61506;BME280;47366;51.916;4.574;2023-04-05T00:41:24;102591.44;;;5.04;64.41
61506;BME280;47366;51.916;4.574;2023-04-05T00:43:50;102603.00;;;5.07;65.08
61506;BME280;47366;51.916;4.574;2023-04-05T00:46:16;102606.59;;;5.09;65.02
61506;BME280;47366;51.916;4.574;2023-04-05T00:48:41;102605.69;;;5.07;64.22
61506;BME280;47366;51.916;4.574;2023-04-05T00:51:09;102598.59;;;5.03;64.70
61506;BME280;47366;51.916;4.574;2023-04-05T00:53:36;102603.97;;;5.00;65.05
61506;BME280;47366;51.916;4.574;2023-04-05T00:56:02;102608.50;;;4.95;65.20
61506;BME280;47366;51.916;4.574;2023-04-05T00:58:28;102605.81;;;4.95;65.88
61506;BME280;47366;51.916;4.574;2023-04-05T01:00:59;102603.19;;;4.92;66.13
61506;BME280;47366;51.916;4.574;2023-04-05T01:03:28;102608.59;;;4.87;66.13
61506;BME280;47366;51.916;4.574;2023-04-05T01:08:33;102596.13;;;4.80;67.19
61506;BME280;47366;51.916;4.574;2023-04-05T01:11:03;102589.91;;;4.75;66.51
61506;BME280;47366;51.916;4.574;2023-04-05T01:13:29;102593.50;;;4.76;66.54
61506;BME280;47366;51.916;4.574;2023-04-05T01:15:55;102588.13;;;4.77;66.86
61506;BME280;47366;51.916;4.574;2023-04-05T01:18:20;102580.06;;;4.74;66.71
61506;BME280;47366;51.916;4.574;2023-04-05T01:20:51;102581.00;;;4.72;66.25
61506;BME280;47366;51.916;4.574;2023-04-05T01:23:36;102577.47;;;4.66;66.61
61506;BME280;47366;51.916;4.574;2023-04-05T01:26:03;102576.56;;;4.67;67.06
61506;BME280;47366;51.916;4.574;2023-04-05T01:28:58;102576.63;;;4.63;66.91
61506;BME280;47366;51.916;4.574;2023-04-05T01:31:40;102560.53;;;4.63;66.82
61506;BME280;47366;51.916;4.574;2023-04-05T01:36:57;102559.72;;;4.53;67.57
61506;BME280;47366;51.916;4.574;2023-04-05T01:39:26;102552.59;;;4.47;66.93
61506;BME280;47366;51.916;4.574;2023-04-05T01:41:57;102559.75;;;4.49;67.52
61506;BME280;47366;51.916;4.574;2023-04-05T01:44:23;102546.34;;;4.45;67.44
61506;BME280;47366;51.916;4.574;2023-04-05T01:46:48;102560.66;;;4.44;66.34
61506;BME280;47366;51.916;4.574;2023-04-05T01:49:14;102551.75;;;4.41;67.57
61506;BME280;47366;51.916;4.574;2023-04-05T01:51:39;102550.91;;;4.37;67.49
61506;BME280;47366;51.916;4.574;2023-04-05T01:54:06;102557.19;;;4.33;67.88
61506;BME280;47366;51.916;4.574;2023-04-05T01:56:31;102547.41;;;4.28;67.82
61506;BME280;47366;51.916;4.574;2023-04-05T01:58:57;102550.09;;;4.28;68.25
61506;BME280;47366;51.916;4.574;2023-04-05T02:01:22;102545.63;;;4.23;67.95
61506;BME280;47366;51.916;4.574;2023-04-05T02:03:47;102540.31;;;4.19;67.37
61506;BME280;47366;51.916;4.574;2023-04-05T02:06:13;102534.94;;;4.20;67.76
61506;BME280;47366;51.916;4.574;2023-04-05T02:08:38;102534.94;;;4.20;67.83
61506;BME280;47366;51.916;4.574;2023-04-05T02:11:03;102526.94;;;4.17;68.86
61506;BME280;47366;51.916;4.574;2023-04-05T02:13:29;102530.47;;;4.19;68.44
61506;BME280;47366;51.916;4.574;2023-04-05T02:15:54;102523.38;;;4.15;68.72
61506;BME280;47366;51.916;4.574;2023-04-05T02:18:19;102527.84;;;4.13;68.20
61506;BME280;47366;51.916;4.574;2023-04-05T02:21:04;102517.16;;;4.10;68.00
61506;BME280;47366;51.916;4.574;2023-04-05T02:23:30;102525.16;;;4.12;68.47
61506;BME280;47366;51.916;4.574;2023-04-05T02:25:56;102510.91;;;4.08;67.49
61506;BME280;47366;51.916;4.574;2023-04-05T02:28:22;102509.94;;;4.12;67.75
61506;BME280;47366;51.916;4.574;2023-04-05T02:30:47;102510.03;;;4.08;67.85
61506;BME280;47366;51.916;4.574;2023-04-05T02:33:12;102513.59;;;4.05;68.12
61506;BME280;47366;51.916;4.574;2023-04-05T02:35:38;102510.03;;;4.06;68.59
61506;BME280;47366;51.916;4.574;2023-04-05T02:38:04;102510.91;;;4.05;67.79
61506;BME280;47366;51.916;4.574;2023-04-05T02:40:29;102515.38;;;4.06;67.84
61506;BME280;47366;51.916;4.574;2023-04-05T02:42:55;102508.22;;;4.05;69.23
61506;BME280;47366;51.916;4.574;2023-04-05T02:45:20;102510.91;;;4.05;68.38
61506;BME280;47366;51.916;4.574;2023-04-05T02:47:45;102503.81;;;4.01;68.39
61506;BME280;47366;51.916;4.574;2023-04-05T02:50:11;102503.81;;;3.99;68.76
61506;BME280;47366;51.916;4.574;2023-04-05T02:52:36;102499.38;;;3.98;68.83
61506;BME280;47366;51.916;4.574;2023-04-05T02:55:04;102494.91;;;3.93;68.89
61506;BME280;47366;51.916;4.574;2023-04-05T02:57:30;102499.41;;;3.94;68.81
61506;BME280;47366;51.916;4.574;2023-04-05T02:59:55;102501.19;;;3.92;69.29
61506;BME280;47366;51.916;4.574;2023-04-05T03:02:21;102496.75;;;3.86;69.09
61506;BME280;47366;51.916;4.574;2023-04-05T03:04:46;102488.69;;;3.86;69.16
61506;BME280;47366;51.916;4.574;2023-04-05T03:07:11;102487.88;;;3.79;69.70
61506;BME280;47366;51.916;4.574;2023-04-05T03:09:43;102494.16;;;3.77;69.60
61506;BME280;47366;51.916;4.574;2023-04-05T03:12:10;102492.34;;;3.76;69.01
61506;BME280;47366;51.916;4.574;2023-04-05T03:14:37;102486.16;;;3.71;70.01
61506;BME280;47366;51.916;4.574;2023-04-05T03:17:02;102487.97;;;3.67;70.05
61506;BME280;47366;51.916;4.574;2023-04-05T03:19:28;102491.53;;;3.65;70.64
61506;BME280;47366;51.916;4.574;2023-04-05T03:21:53;102488.88;;;3.61;70.19
61506;BME280;47366;51.916;4.574;2023-04-05T03:24:18;102488.91;;;3.58;70.72
61506;BME280;47366;51.916;4.574;2023-04-05T03:26:45;102490.69;;;3.56;70.69
61506;BME280;47366;51.916;4.574;2023-04-05T03:29:11;102488.97;;;3.51;69.96
61506;BME280;47366;51.916;4.574;2023-04-05T03:31:37;102493.41;;;3.50;69.98
61506;BME280;47366;51.916;4.574;2023-04-05T03:34:03;102490.78;;;3.46;70.60
61506;BME280;47366;51.916;4.574;2023-04-05T03:36:28;102492.53;;;3.47;70.80
61506;BME280;47366;51.916;4.574;2023-04-05T03:39:06;102493.47;;;3.46;70.55
61506;BME280;47366;51.916;4.574;2023-04-05T03:41:32;102482.75;;;3.39;70.50
61506;BME280;47366;51.916;4.574;2023-04-05T03:43:57;102475.66;;;3.34;71.38
61506;BME280;47366;51.916;4.574;2023-04-05T03:46:23;102485.47;;;3.35;71.05
61506;BME280;47366;51.916;4.574;2023-04-05T03:48:48;102481.00;;;3.32;71.94
61506;BME280;47366;51.916;4.574;2023-04-05T03:51:13;102474.78;;;3.30;71.31
61506;BME280;47366;51.916;4.574;2023-04-05T03:53:39;102474.78;;;3.26;72.12
61506;BME280;47366;51.916;4.574;2023-04-05T03:56:05;102473.91;;;3.24;71.51
61506;BME280;47366;51.916;4.574;2023-04-05T03:58:31;102480.16;;;3.21;71.99
61506;BME280;47366;51.916;4.574;2023-04-05T04:00:57;102487.31;;;3.21;71.99
61506;BME280;47366;51.916;4.574;2023-04-05T04:03:22;102479.28;;;3.19;71.02
61506;BME280;47366;51.916;4.574;2023-04-05T04:05:50;102473.94;;;3.21;71.39
61506;BME280;47366;51.916;4.574;2023-04-05T04:08:15;102471.28;;;3.16;71.27
61506;BME280;47366;51.916;4.574;2023-04-05T04:10:41;102475.72;;;3.20;70.75
61506;BME280;47366;51.916;4.574;2023-04-05T04:13:06;102464.13;;;3.16;70.86
61506;BME280;47366;51.916;4.574;2023-04-05T04:15:31;102467.69;;;3.20;71.25
61506;BME280;47366;51.916;4.574;2023-04-05T04:17:57;102469.50;;;3.19;71.46
61506;BME280;47366;51.916;4.574;2023-04-05T04:20:22;102472.16;;;3.16;71.30
61506;BME280;47366;51.916;4.574;2023-04-05T04:22:47;102475.72;;;3.18;71.40
61506;BME280;47366;51.916;4.574;2023-04-05T04:25:14;102461.47;;;3.15;71.55
61506;BME280;47366;51.916;4.574;2023-04-05T04:27:43;102462.38;;;3.11;71.68
61506;BME280;47366;51.916;4.574;2023-04-05T04:30:10;102462.38;;;3.11;71.85
61506;BME280;47366;51.916;4.574;2023-04-05T04:32:39;102457.03;;;3.08;72.08
61506;BME280;47366;51.916;4.574;2023-04-05T04:35:27;102465.06;;;3.08;72.18
61506;BME280;47366;51.916;4.574;2023-04-05T04:40:19;102471.31;;;3.07;71.53
61506;BME280;47366;51.916;4.574;2023-04-05T04:42:45;102464.16;;;3.07;71.69
61506;BME280;47366;51.916;4.574;2023-04-05T04:45:12;102464.16;;;3.07;71.77
61506;BME280;47366;51.916;4.574;2023-04-05T04:47:40;102457.94;;;3.04;71.85
61506;BME280;47366;51.916;4.574;2023-04-05T04:50:06;102468.66;;;3.04;71.59
61506;BME280;47366;51.916;4.574;2023-04-05T04:52:33;102467.75;;;3.02;70.94
61506;BME280;47366;51.916;4.574;2023-04-05T04:54:58;102470.47;;;2.98;72.73
61506;BME280;47366;51.916;4.574;2023-04-05T04:57:24;102469.56;;;2.96;72.00
61506;BME280;47366;51.916;4.574;2023-04-05T04:59:49;102467.81;;;2.94;72.31
61506;BME280;47366;51.916;4.574;2023-04-05T05:02:15;102460.66;;;2.93;72.55
61506;BME280;47366;51.916;4.574;2023-04-05T05:04:40;102461.56;;;2.93;72.27
61506;BME280;47366;51.916;4.574;2023-04-05T05:07:07;102466.91;;;2.93;71.53
61506;BME280;47366;51.916;4.574;2023-04-05T05:09:34;102461.56;;;2.90;71.95
61506;BME280;47366;51.916;4.574;2023-04-05T05:12:00;102462.47;;;2.88;72.41
61506;BME280;47366;51.916;4.574;2023-04-05T05:14:25;102460.69;;;2.90;72.48
61506;BME280;47366;51.916;4.574;2023-04-05T05:16:51;102468.69;;;2.90;72.70
61506;BME280;47366;51.916;4.574;2023-04-05T05:19:18;102460.69;;;2.87;72.57
61506;BME280;47366;51.916;4.574;2023-04-05T05:21:44;102466.94;;;2.87;72.59
61506;BME280;47366;51.916;4.574;2023-04-05T05:24:10;102473.16;;;2.89;72.67
61506;BME280;47366;51.916;4.574;2023-04-05T05:26:35;102477.63;;;2.90;72.36
61506;BME280;47366;51.916;4.574;2023-04-05T05:29:02;102468.69;;;2.88;72.58
61506;BME280;47366;51.916;4.574;2023-04-05T05:31:28;102479.41;;;2.88;72.97
61506;BME280;47366;51.916;4.574;2023-04-05T05:33:53;102474.03;;;2.88;71.83
61506;BME280;47366;51.916;4.574;2023-04-05T05:36:18;102479.41;;;2.91;72.66
61506;BME280;47366;51.916;4.574;2023-04-05T05:38:44;102479.38;;;2.93;72.69
61506;BME280;47366;51.916;4.574;2023-04-05T05:41:10;102479.38;;;2.94;72.65
61506;BME280;47366;51.916;4.574;2023-04-05T05:43:35;102485.63;;;2.95;72.38
61506;BME280;47366;51.916;4.574;2023-04-05T05:46:01;102485.63;;;2.95;72.42
61506;BME280;47366;51.916;4.574;2023-04-05T05:48:26;102483.84;;;2.98;72.75
61506;BME280;47366;51.916;4.574;2023-04-05T05:50:52;102486.53;;;2.98;72.59
61506;BME280;47366;51.916;4.574;2023-04-05T05:53:18;102483.84;;;2.95;73.13
61506;BME280;47366;51.916;4.574;2023-04-05T05:55:44;102484.72;;;2.97;73.37
61506;BME280;47366;51.916;4.574;2023-04-05T05:58:09;102483.81;;;3.00;72.47
61506;BME280;47366;51.916;4.574;2023-04-05T06:00:35;102482.03;;;3.04;72.35
61506;BME280;47366;51.916;4.574;2023-04-05T06:03:00;102475.78;;;3.05;72.19
61506;BME280;47366;51.916;4.574;2023-04-05T06:05:26;102474.88;;;3.07;71.75
61506;BME280;47366;51.916;4.574;2023-04-05T06:07:51;102482.00;;;3.10;71.96
61506;BME280;47366;51.916;4.574;2023-04-05T06:10:17;102474.84;;;3.13;71.60
61506;BME280;47366;51.916;4.574;2023-04-05T06:12:42;102479.28;;;3.21;71.50
61506;BME280;47366;51.916;4.574;2023-04-05T06:15:08;102477.47;;;3.24;71.50
61506;BME280;47366;51.916;4.574;2023-04-05T06:17:33;102482.81;;;3.30;72.94
61506;BME280;47366;51.916;4.574;2023-04-05T06:20:04;102487.22;;;3.37;71.81
61506;BME280;47366;51.916;4.574;2023-04-05T06:22:30;102484.50;;;3.47;72.01
61506;BME280;47366;51.916;4.574;2023-04-05T06:24:55;102481.78;;;3.54;70.84
61506;BME280;47366;51.916;4.574;2023-04-05T06:27:20;102479.97;;;3.59;71.05
61506;BME280;47366;51.916;4.574;2023-04-05T06:29:46;102479.00;;;3.71;70.08
61506;BME280;47366;51.916;4.574;2023-04-05T06:32:11;102482.47;;;3.89;69.89
61506;BME280;47366;51.916;4.574;2023-04-05T06:34:36;102472.56;;;3.98;70.16
61506;BME280;47366;51.916;4.574;2023-04-05T06:37:02;102482.22;;;4.16;69.81
61506;BME280;47366;51.916;4.574;2023-04-05T06:39:27;102478.53;;;4.30;68.44
61506;BME280;47366;51.916;4.574;2023-04-05T06:41:52;102468.63;;;4.39;69.09
61506;BME280;47366;51.916;4.574;2023-04-05T06:44:18;102476.53;;;4.53;69.39
61506;BME280;47366;51.916;4.574;2023-04-05T06:46:43;102474.56;;;4.69;68.22
61506;BME280;47366;51.916;4.574;2023-04-05T06:49:08;102474.34;;;4.89;68.30
61506;BME280;47366;51.916;4.574;2023-04-05T06:51:34;102470.56;;;5.05;67.90
61506;BME280;47366;51.916;4.574;2023-04-05T06:53:59;102473.94;;;5.23;67.14
61506;BME280;47366;51.916;4.574;2023-04-05T06:56:24;102470.94;;;5.43;66.99
61506;BME280;47366;51.916;4.574;2023-04-05T06:58:50;102475.00;;;5.73;66.12
61506;BME280;47366;51.916;4.574;2023-04-05T07:01:15;102463.94;;;5.93;65.63
61506;BME280;47366;51.916;4.574;2023-04-05T07:03:41;102467.22;;;6.13;64.83
61506;BME280;47366;51.916;4.574;2023-04-05T07:06:07;102460.59;;;6.33;64.89
61506;BME280;47366;51.916;4.574;2023-04-05T07:08:33;102464.63;;;6.57;64.12
61506;BME280;47366;51.916;4.574;2023-04-05T07:10:59;102461.63;;;6.74;63.41
61506;BME280;47366;51.916;4.574;2023-04-05T07:13:24;102463.06;;;6.92;62.83
61506;BME280;47366;51.916;4.574;2023-04-05T07:15:51;102458.41;;;7.00;62.31
61506;BME280;47366;51.916;4.574;2023-04-05T07:18:17;102455.44;;;7.12;62.10
61506;BME280;47366;51.916;4.574;2023-04-05T07:20:46;102457.84;;;7.26;61.59
61506;BME280;47366;51.916;4.574;2023-04-05T07:23:12;102455.66;;;7.43;61.11
61506;BME280;47366;51.916;4.574;2023-04-05T07:25:39;102454.25;;;7.68;60.49
61506;BME280;47366;51.916;4.574;2023-04-05T07:28:04;102449.44;;;7.79;60.18
61506;BME280;47366;51.916;4.574;2023-04-05T07:30:29;102446.63;;;7.85;59.12
61506;BME280;47366;51.916;4.574;2023-04-05T07:32:56;102453.53;;;7.97;59.68
61506;BME280;47366;51.916;4.574;2023-04-05T07:35:22;102446.72;;;8.18;59.48
61506;BME280;47366;51.916;4.574;2023-04-05T07:37:48;102447.13;;;8.35;59.23
61506;BME280;47366;51.916;4.574;2023-04-05T07:40:13;102447.59;;;8.53;57.97
61506;BME280;47366;51.916;4.574;2023-04-05T07:42:38;102439.25;;;8.62;58.35
61506;BME280;47366;51.916;4.574;2023-04-05T07:45:04;102439.84;;;8.73;57.20
61506;BME280;47366;51.916;4.574;2023-04-05T07:47:32;102435.84;;;8.86;57.68
61506;BME280;47366;51.916;4.574;2023-04-05T07:49:58;102441.72;;;9.01;57.42
61506;BME280;47366;51.916;4.574;2023-04-05T07:52:23;102439.59;;;9.12;56.79
61506;BME280;47366;51.916;4.574;2023-04-05T07:54:49;102438.03;;;9.34;56.81
61506;BME280;47366;51.916;4.574;2023-04-05T07:57:18;102432.38;;;9.42;56.77
61506;BME280;47366;51.916;4.574;2023-04-05T07:59:44;102438.03;;;9.63;56.01
61506;BME280;47366;51.916;4.574;2023-04-05T08:02:09;102433.00;;;9.78;54.87
61506;BME280;47366;51.916;4.574;2023-04-05T08:04:35;102436.66;;;9.77;54.46
61506;BME280;47366;51.916;4.574;2023-04-05T08:07:00;102431.13;;;9.82;54.81
61506;BME280;47366;51.916;4.574;2023-04-05T08:09:25;102430.31;;;10.05;53.46
61506;BME280;47366;51.916;4.574;2023-04-05T08:11:50;102420.56;;;10.26;53.41
61506;BME280;47366;51.916;4.574;2023-04-05T08:14:16;102417.81;;;10.28;53.10
61506;BME280;47366;51.916;4.574;2023-04-05T08:16:42;102425.66;;;10.37;52.52
61506;BME280;47366;51.916;4.574;2023-04-05T08:19:07;102427.09;;;10.47;51.82
61506;BME280;47366;51.916;4.574;2023-04-05T08:21:33;102427.44;;;10.63;51.81
61506;BME280;47366;51.916;4.574;2023-04-05T08:23:58;102423.56;;;10.70;51.61
61506;BME280;47366;51.916;4.574;2023-04-05T08:26:24;102418.59;;;10.81;50.66
61506;BME280;47366;51.916;4.574;2023-04-05T08:28:49;102416.38;;;10.93;48.56
61506;BME280;47366;51.916;4.574;2023-04-05T08:31:15;102416.16;;;10.99;48.73
61506;BME280;47366;51.916;4.574;2023-04-05T08:33:40;102415.22;;;11.23;50.23
61506;BME280;47366;51.916;4.574;2023-04-05T08:36:07;102414.22;;;11.48;48.56
61506;BME280;47366;51.916;4.574;2023-04-05T08:38:34;102411.50;;;11.48;48.86
61506;BME280;47366;51.916;4.574;2023-04-05T08:41:07;102414.50;;;11.42;46.82
61506;BME280;47366;51.916;4.574;2023-04-05T08:43:48;102422.19;;;11.53;46.63
61506;BME280;47366;51.916;4.574;2023-04-05T08:46:17;102413.84;;;11.57;44.09
61506;BME280;47366;51.916;4.574;2023-04-05T08:48:44;102410.78;;;11.66;48.13
61506;BME280;47366;51.916;4.574;2023-04-05T08:51:09;102415.22;;;11.91;48.39
61506;BME280;47366;51.916;4.574;2023-04-05T08:53:35;102405.13;;;11.95;45.30
61506;BME280;47366;51.916;4.574;2023-04-05T08:56:01;102412.88;;;12.04;45.51
61506;BME280;47366;51.916;4.574;2023-04-05T08:58:27;102403.78;;;12.05;45.36
61506;BME280;47366;51.916;4.574;2023-04-05T09:00:54;102409.25;;;12.25;42.50
61506;BME280;47366;51.916;4.574;2023-04-05T09:03:22;102409.63;;;12.37;45.92
61506;BME280;47366;51.916;4.574;2023-04-05T09:05:50;102412.34;;;12.57;44.13
61506;BME280;47366;51.916;4.574;2023-04-05T09:08:16;102405.94;;;12.58;41.18
61506;BME280;47366;51.916;4.574;2023-04-05T09:10:42;102404.41;;;12.52;43.05
61506;BME280;47366;51.916;4.574;2023-04-05T09:13:08;102408.75;;;12.57;43.76
61506;BME280;47366;51.916;4.574;2023-04-05T09:15:37;102414.66;;;12.66;42.02
61506;BME280;47366;51.916;4.574;2023-04-05T09:18:03;102412.88;;;12.65;41.67
61506;BME280;47366;51.916;4.574;2023-04-05T09:20:29;102405.28;;;12.73;43.66
61506;BME280;47366;51.916;4.574;2023-04-05T09:22:57;102402.03;;;12.84;43.22
61506;BME280;47366;51.916;4.574;2023-04-05T09:25:40;102399.78;;;12.94;42.65
61506;BME280;47366;51.916;4.574;2023-04-05T09:28:07;102398.34;;;13.25;43.99
61506;BME280;47366;51.916;4.574;2023-04-05T09:30:34;102398.75;;;13.36;43.76
61506;BME280;47366;51.916;4.574;2023-04-05T09:33:02;102396.22;;;13.50;41.64
61506;BME280;47366;51.916;4.574;2023-04-05T09:35:29;102398.88;;;13.52;40.93
61506;BME280;47366;51.916;4.574;2023-04-05T09:38:00;102400.28;;;13.42;39.12
61506;BME280;47366;51.916;4.574;2023-04-05T09:40:44;102409.38;;;13.22;39.32
61506;BME280;47366;51.916;4.574;2023-04-05T09:43:11;102402.56;;;13.32;39.62
61506;BME280;47366;51.916;4.574;2023-04-05T09:45:41;102392.03;;;13.43;37.83
61506;BME280;47366;51.916;4.574;2023-04-05T09:48:07;102385.41;;;13.49;39.91
61506;BME280;47366;51.916;4.574;2023-04-05T09:50:33;102391.22;;;13.22;41.88
61506;BME280;47366;51.916;4.574;2023-04-05T09:53:11;102393.78;;;13.44;40.30
61506;BME280;47366;51.916;4.574;2023-04-05T09:55:45;102386.66;;;13.60;38.79
61506;BME280;47366;51.916;4.574;2023-04-05T09:58:12;102376.03;;;13.73;38.42
61506;BME280;47366;51.916;4.574;2023-04-05T10:00:38;102383.53;;;13.87;39.48
61506;BME280;47366;51.916;4.574;2023-04-05T10:03:17;102384.63;;;14.18;40.53
61506;BME280;47366;51.916;4.574;2023-04-05T10:05:43;102377.91;;;14.42;41.66
61506;BME280;47366;51.916;4.574;2023-04-05T10:08:08;102365.47;;;14.37;37.14
61506;BME280;47366;51.916;4.574;2023-04-05T10:10:37;102363.72;;;14.36;39.14
61506;BME280;47366;51.916;4.574;2023-04-05T10:13:10;102373.28;;;14.44;39.18
61506;BME280;47366;51.916;4.574;2023-04-05T10:15:36;102358.94;;;14.23;38.89
61506;BME280;47366;51.916;4.574;2023-04-05T10:18:03;102368.06;;;14.40;37.27
61506;BME280;47366;51.916;4.574;2023-04-05T10:20:32;102367.16;;;14.39;38.21
61506;BME280;47366;51.916;4.574;2023-04-05T10:25:52;102361.06;;;14.69;36.98
61506;BME280;47366;51.916;4.574;2023-04-05T10:28:36;102366.16;;;14.75;38.70
61506;BME280;47366;51.916;4.574;2023-04-05T10:31:09;102360.88;;;14.72;39.22
61506;BME280;47366;51.916;4.574;2023-04-05T10:33:43;102363.09;;;14.81;39.02
61506;BME280;47366;51.916;4.574;2023-04-05T10:38:59;102362.59;;;14.91;38.97
61506;BME280;47366;51.916;4.574;2023-04-05T10:41:26;102349.69;;;15.10;38.94
61506;BME280;47366;51.916;4.574;2023-04-05T10:43:54;102352.44;;;15.26;36.19
61506;BME280;47366;51.916;4.574;2023-04-05T10:46:21;102362.53;;;15.08;39.90
61506;BME280;47366;51.916;4.574;2023-04-05T10:51:34;102355.78;;;15.47;38.38
61506;BME280;47366;51.916;4.574;2023-04-05T10:54:00;102349.41;;;15.46;37.96
61506;BME280;47366;51.916;4.574;2023-04-05T10:56:25;102347.75;;;15.44;34.58
61506;BME280;47366;51.916;4.574;2023-04-05T10:58:52;102344.22;;;15.42;36.58
61506;BME280;47366;51.916;4.574;2023-04-05T11:01:20;102346.75;;;15.61;36.92
61506;BME280;47366;51.916;4.574;2023-04-05T11:03:46;102338.56;;;15.77;36.85
61506;BME280;47366;51.916;4.574;2023-04-05T11:06:20;102340.22;;;15.63;37.58
61506;BME280;47366;51.916;4.574;2023-04-05T11:08:47;102329.69;;;15.73;37.33
61506;BME280;47366;51.916;4.574;2023-04-05T11:11:15;102323.16;;;15.60;32.77
61506;BME280;47366;51.916;4.574;2023-04-05T11:13:55;102326.16;;;15.39;36.42
61506;BME280;47366;51.916;4.574;2023-04-05T11:16:22;102324.50;;;15.05;35.06
61506;BME280;47366;51.916;4.574;2023-04-05T11:18:49;102319.47;;;15.13;37.28
61506;BME280;47366;51.916;4.574;2023-04-05T11:21:23;102325.22;;;15.40;36.50
61506;BME280;47366;51.916;4.574;2023-04-05T11:29:09;102322.81;;;15.96;36.43
61506;BME280;47366;51.916;4.574;2023-04-05T11:31:35;102320.50;;;15.58;35.80
61506;BME280;47366;51.916;4.574;2023-04-05T11:34:05;102316.56;;;15.48;34.62
61506;BME280;47366;51.916;4.574;2023-04-05T11:36:44;102319.78;;;15.70;35.48
61506;BME280;47366;51.916;4.574;2023-04-05T11:42:03;102320.84;;;16.14;35.34
61506;BME280;47366;51.916;4.574;2023-04-05T11:47:05;102305.19;;;16.02;33.19
61506;BME280;47366;51.916;4.574;2023-04-05T11:49:32;102300.69;;;15.70;34.73
61506;BME280;47366;51.916;4.574;2023-04-05T11:51:58;102297.25;;;15.51;32.98
61506;BME280;47366;51.916;4.574;2023-04-05T11:54:33;102295.25;;;15.39;33.88
61506;BME280;47366;51.916;4.574;2023-04-05T11:56:58;102284.47;;;15.51;35.06
61506;BME280;47366;51.916;4.574;2023-04-05T11:59:31;102292.72;;;15.66;33.31
61506;BME280;47366;51.916;4.574;2023-04-05T12:01:58;102290.31;;;15.29;33.88
61506;BME280;47366;51.916;4.574;2023-04-05T12:04:24;102292.16;;;15.45;35.49
61506;BME280;47366;51.916;4.574;2023-04-05T12:07:10;102285.88;;;15.75;35.46
61506;BME280;47366;51.916;4.574;2023-04-05T12:09:54;102286.41;;;15.96;34.22
61506;BME280;47366;51.916;4.574;2023-04-05T12:12:20;102275.44;;;16.11;32.97
61506;BME280;47366;51.916;4.574;2023-04-05T12:14:45;102275.72;;;16.07;33.75
61506;BME280;47366;51.916;4.574;2023-04-05T12:17:11;102271.59;;;16.00;32.57
61506;BME280;47366;51.916;4.574;2023-04-05T12:19:36;102276.34;;;15.66;32.33
61506;BME280;47366;51.916;4.574;2023-04-05T12:22:01;102271.81;;;15.35;33.94
61506;BME280;47366;51.916;4.574;2023-04-05T12:24:27;102271.88;;;15.49;35.57
61506;BME280;47366;51.916;4.574;2023-04-05T12:26:52;102272.91;;;15.62;36.36
61506;BME280;47366;51.916;4.574;2023-04-05T12:29:18;102263.84;;;15.62;35.21
61506;BME280;47366;51.916;4.574;2023-04-05T12:31:44;102276.56;;;15.93;35.64
61506;BME280;47366;51.916;4.574;2023-04-05T12:34:11;102267.59;;;16.05;33.64
61506;BME280;47366;51.916;4.574;2023-04-05T12:36:37;102261.34;;;16.03;35.36
61506;BME280;47366;51.916;4.574;2023-04-05T12:39:08;102262.34;;;16.02;33.35
61506;BME280;47366;51.916;4.574;2023-04-05T12:41:33;102267.81;;;15.72;30.98
61506;BME280;47366;51.916;4.574;2023-04-05T12:44:04;102262.00;;;15.62;32.33
61506;BME280;47366;51.916;4.574;2023-04-05T12:46:40;102253.69;;;15.80;34.75
61506;BME280;47366;51.916;4.574;2023-04-05T12:49:17;102259.41;;;15.75;32.79
61506;BME280;47366;51.916;4.574;2023-04-05T12:51:47;102260.25;;;15.61;34.68
61506;BME280;47366;51.916;4.574;2023-04-05T12:56:39;102254.28;;;15.85;32.59
61506;BME280;47366;51.916;4.574;2023-04-05T12:59:05;102249.41;;;15.60;32.54
61506;BME280;47366;51.916;4.574;2023-04-05T13:01:32;102237.31;;;15.34;33.73
61506;BME280;47366;51.916;4.574;2023-04-05T13:03:58;102237.75;;;15.56;35.14
61506;BME280;47366;51.916;4.574;2023-04-05T13:06:25;102230.94;;;15.79;35.16
61506;BME280;47366;51.916;4.574;2023-04-05T13:08:51;102230.59;;;16.00;34.74
61506;BME280;47366;51.916;4.574;2023-04-05T13:11:16;102224.88;;;16.19;34.56
61506;BME280;47366;51.916;4.574;2023-04-05T13:13:42;102227.97;;;16.12;34.00
61506;BME280;47366;51.916;4.574;2023-04-05T13:16:07;102217.13;;;16.11;34.36
61506;BME280;47366;51.916;4.574;2023-04-05T13:18:33;102220.84;;;16.10;35.00
61506;BME280;47366;51.916;4.574;2023-04-05T13:20:58;102212.25;;;16.02;35.34
61506;BME280;47366;51.916;4.574;2023-04-05T13:23:23;102212.22;;;15.73;33.39
61506;BME280;47366;51.916;4.574;2023-04-05T13:25:49;102212.25;;;15.87;34.20